Time;durP1;ratioP1;P1;durP2;ratioP2;P2;SDS_P1;SDS_P2;PMS_P1;PMS_P2;Temp;Humidity;BMP_temperature;BMP_pressure;BME280_temperature;BME280_humidity;BME280_pressure;Samples;Min_cycle;Max_cycle;Signal;HPM_P1;HPM_P2
2022/10/29 00:00:44;;;;;;;13.07;5.57;;;;;;;13.65;100.00;101186.19;5013101;28;20041;-80
2022/10/29 00:03:11;;;;;;;13.68;6.25;;;;;;;13.65;100.00;101193.28;5012814;28;20048;-81
2022/10/29 00:05:38;;;;;;;8.95;5.75;;;;;;;13.63;100.00;101192.44;5011548;28;20061;-80
2022/10/29 00:08:04;;;;;;;15.90;5.82;;;;;;;13.65;100.00;101185.31;5026647;28;20041;-80
2022/10/29 00:10:31;;;;;;;10.32;5.55;;;;;;;13.64;100.00;101186.22;5010983;28;20056;-80
2022/10/29 00:13:02;;;;;;;11.98;5.38;;;;;;;13.72;100.00;101192.22;4997986;28;20129;-80
2022/10/29 00:15:29;;;;;;;11.52;5.93;;;;;;;13.69;100.00;101197.59;5006670;28;20038;-80
2022/10/29 00:17:55;;;;;;;14.48;5.43;;;;;;;13.66;100.00;101193.22;5006737;28;20107;-80
2022/10/29 00:20:25;;;;;;;9.25;5.10;;;;;;;13.66;100.00;101192.34;5013189;28;20072;-80
2022/10/29 00:22:52;;;;;;;10.90;5.53;;;;;;;13.63;100.00;101203.06;5010897;28;20108;-80
2022/10/29 00:25:20;;;;;;;10.07;5.65;;;;;;;13.61;100.00;101204.88;4993735;28;20084;-81
2022/10/29 00:27:50;;;;;;;9.73;5.22;;;;;;;13.72;100.00;101202.84;4995687;28;20042;-80
2022/10/29 00:30:16;;;;;;;12.93;5.75;;;;;;;13.68;100.00;101199.38;4993219;28;20040;-80
2022/10/29 00:32:43;;;;;;;10.05;5.80;;;;;;;13.66;100.00;101211.81;4995291;28;20052;-81
2022/10/29 00:35:10;;;;;;;12.43;5.63;;;;;;;13.68;100.00;101212.66;4993571;28;20431;-81
2022/10/29 00:37:37;;;;;;;17.20;6.85;;;;;;;13.81;100.00;101218.53;5011840;28;20495;-80
2022/10/29 00:40:10;;;;;;;12.88;5.65;;;;;;;13.73;100.00;101217.84;4999234;28;20698;-81
2022/10/29 00:42:37;;;;;;;13.60;5.75;;;;;;;13.72;100.00;101211.69;4990833;28;20129;-80
2022/10/29 00:45:04;;;;;;;11.55;5.93;;;;;;;13.82;100.00;101219.41;4993520;28;20046;-80
2022/10/29 00:47:33;;;;;;;12.75;5.63;;;;;;;13.79;100.00;101223.91;4989267;28;20046;-81
2022/10/29 00:50:05;;;;;;;11.48;5.43;;;;;;;13.74;100.00;101223.13;5007838;28;20038;-81
2022/10/29 00:52:33;;;;;;;11.63;6.57;;;;;;;13.80;100.00;101222.09;4994621;28;20065;-81
2022/10/29 00:55:02;;;;;;;11.70;6.00;;;;;;;13.79;100.00;101231.00;4986326;28;20047;-80
2022/10/29 00:57:34;;;;;;;13.90;5.85;;;;;;;13.78;100.00;101218.59;5008736;28;20037;-80
2022/10/29 01:00:01;;;;;;;11.40;6.05;;;;;;;13.72;100.00;101213.47;5004270;28;20076;-81
2022/10/29 01:02:28;;;;;;;10.95;5.88;;;;;;;13.69;100.00;101209.06;4992642;28;20403;-81
2022/10/29 01:04:55;;;;;;;10.68;6.35;;;;;;;13.70;100.00;101215.25;5008819;28;20038;-81
2022/10/29 01:07:22;;;;;;;12.13;6.05;;;;;;;13.66;100.00;101214.47;4994768;28;20096;-81
2022/10/29 01:09:49;;;;;;;10.88;5.03;;;;;;;13.66;100.00;101234.84;4984650;28;20463;-80
2022/10/29 01:12:33;;;;;;;11.15;5.43;;;;;;;13.60;100.00;101234.97;4992400;28;20045;-81
2022/10/29 01:15:37;;;;;;;13.57;6.32;;;;;;;13.60;100.00;101234.97;4979147;28;20064;-80
2022/10/29 01:18:23;;;;;;;11.98;5.70;;;;;;;13.48;100.00;101225.53;5011813;28;20283;-80
2022/10/29 01:21:08;;;;;;;13.75;5.68;;;;;;;13.48;100.00;101223.75;5007813;28;20037;-81
2022/10/29 01:26:27;;;;;;;9.82;5.47;;;;;;;13.37;100.00;101233.75;4955533;28;20038;-81
2022/10/29 01:29:24;;;;;;;10.13;5.82;;;;;;;13.36;100.00;101229.31;4955460;28;20531;-79
2022/10/29 01:31:55;;;;;;;13.07;6.45;;;;;;;13.35;100.00;101234.69;4980906;28;20093;-81
2022/10/29 01:34:26;;;;;;;9.10;5.43;;;;;;;13.30;100.00;101240.09;4964465;28;20039;-81
2022/10/29 01:37:00;;;;;;;12.73;6.32;;;;;;;13.27;100.00;101239.28;4951568;28;20046;-81
2022/10/29 01:39:35;;;;;;;11.90;5.95;;;;;;;13.28;100.00;101241.91;4946569;28;20559;-80
2022/10/29 01:42:11;;;;;;;9.52;5.95;;;;;;;13.21;100.00;101246.50;4976592;28;20101;-81
2022/10/29 01:44:47;;;;;;;12.07;6.68;;;;;;;13.18;100.00;101240.31;4938280;28;20034;-80
2022/10/29 01:47:20;;;;;;;12.95;6.47;;;;;;;13.17;100.00;101246.53;4938684;28;20046;-80
2022/10/29 01:49:57;;;;;;;11.57;5.57;;;;;;;13.24;100.00;101254.38;4974166;28;20467;-79
2022/10/29 01:52:26;;;;;;;13.00;6.32;;;;;;;13.22;100.00;101253.53;4938967;28;20073;-80
2022/10/29 01:54:52;;;;;;;13.32;6.47;;;;;;;13.24;100.00;101243.75;4956057;28;20057;-81
2022/10/29 01:57:37;;;;;;;12.02;5.70;;;;;;;13.24;100.00;101234.94;4971554;28;20054;-81
2022/10/29 02:00:07;;;;;;;;;;;;;;;13.21;100.00;101245.63;4949415;28;20039;-80
2022/10/29 02:03:11;;;;;;;14.60;6.28;;;;;;;13.21;100.00;101241.19;4977347;28;19922;-78
2022/10/29 02:05:53;;;;;;;11.43;6.18;;;;;;;13.15;100.00;101240.41;4972073;28;20046;-79
2022/10/29 02:08:32;;;;;;;12.18;6.30;;;;;;;13.13;100.00;101256.38;4970559;28;20415;-80
2022/10/29 02:11:06;;;;;;;13.45;6.63;;;;;;;13.10;100.00;101252.88;4970920;28;20121;-81
2022/10/29 02:13:37;;;;;;;13.50;6.10;;;;;;;13.10;100.00;101258.19;4935517;28;20646;-81
2022/10/29 02:16:08;;;;;;;11.55;6.60;;;;;;;13.07;100.00;101250.31;4956373;28;20042;-79
2022/10/29 02:18:42;;;;;;;10.85;6.32;;;;;;;13.06;100.00;101257.41;4953878;28;20401;-81
2022/10/29 02:21:17;;;;;;;12.23;6.07;;;;;;;13.04;100.00;101250.38;4953331;28;20480;-79
2022/10/29 02:23:44;;;;;;;12.98;7.03;;;;;;;13.03;100.00;101254.81;4937940;28;20070;-80
2022/10/29 02:26:11;;;;;;;10.43;6.03;;;;;;;13.00;100.00;101254.84;4969118;28;20089;-79
2022/10/29 02:28:38;;;;;;;15.10;7.18;;;;;;;12.98;100.00;101258.47;4983961;28;20111;-80
2022/10/29 02:31:04;;;;;;;13.82;6.57;;;;;;;12.96;100.00;101248.75;4960173;28;20035;-79
2022/10/29 02:33:34;;;;;;;11.68;6.70;;;;;;;13.00;100.00;101257.50;4955191;28;20093;-80
2022/10/29 02:36:00;;;;;;;16.48;7.22;;;;;;;13.03;100.00;101260.13;4968107;28;20043;-78
2022/10/29 02:38:29;;;;;;;13.57;7.18;;;;;;;13.00;100.00;101267.25;4969102;28;20157;-79
2022/10/29 02:40:57;;;;;;;12.18;7.10;;;;;;;13.01;100.00;101266.34;4953143;28;20106;-80
2022/10/29 02:43:24;;;;;;;13.05;6.93;;;;;;;13.02;100.00;101268.09;4951129;28;20464;-79
2022/10/29 02:46:09;;;;;;;13.70;6.72;;;;;;;13.05;100.00;101278.66;4941985;28;20054;-78
2022/10/29 02:48:36;;;;;;;12.32;7.68;;;;;;;12.99;100.00;101268.16;4960218;28;20500;-80
2022/10/29 02:51:02;;;;;;;17.42;8.13;;;;;;;13.07;100.00;101266.22;4960724;28;20125;-79
2022/10/29 02:53:29;;;;;;;17.90;7.68;;;;;;;13.07;100.00;101276.84;4941013;28;20051;-80
2022/10/29 02:55:55;;;;;;;15.98;7.28;;;;;;;13.04;100.00;101269.81;4961110;28;20046;-78
2022/10/29 02:58:22;;;;;;;10.77;6.70;;;;;;;13.00;100.00;101275.22;4953400;28;20816;-79
2022/10/29 03:00:51;;;;;;;15.57;9.40;;;;;;;12.99;100.00;101278.78;4974355;28;20043;-78
2022/10/29 03:03:18;;;;;;;18.88;7.00;;;;;;;12.99;100.00;101274.34;4949699;28;20035;-79
2022/10/29 03:05:44;;;;;;;15.15;7.35;;;;;;;12.98;100.00;101280.56;4940050;28;20711;-79
2022/10/29 03:08:14;;;;;;;14.20;6.85;;;;;;;12.98;100.00;101280.56;4949219;28;20046;-79
2022/10/29 03:10:41;;;;;;;11.88;6.82;;;;;;;12.94;100.00;101281.50;4951138;28;20562;-79
2022/10/29 03:13:08;;;;;;;11.43;7.15;;;;;;;12.95;100.00;101276.19;4971610;28;20043;-79
2022/10/29 03:15:37;;;;;;;14.70;7.88;;;;;;;12.94;100.00;101273.53;4951135;28;20038;-80
2022/10/29 03:18:04;;;;;;;14.18;7.68;;;;;;;12.94;100.00;101270.88;4953742;28;20047;-79
2022/10/29 03:20:31;;;;;;;15.50;7.57;;;;;;;12.92;100.00;101273.59;4940446;28;20468;-79
2022/10/29 03:22:59;;;;;;;14.38;7.82;;;;;;;12.92;100.00;101286.84;4954096;28;20078;-79
2022/10/29 03:25:26;;;;;;;17.50;8.68;;;;;;;12.96;100.00;101285.91;4955727;28;20031;-79
2022/10/29 03:27:53;;;;;;;16.75;7.85;;;;;;;12.92;100.00;101278.88;4963502;28;21400;-81
2022/10/29 03:30:20;;;;;;;15.68;7.78;;;;;;;12.92;100.00;101281.53;4967277;28;20472;-79
2022/10/29 03:32:47;;;;;;;14.40;8.30;;;;;;;12.90;100.00;101283.34;4933649;28;20042;-78
2022/10/29 03:35:15;;;;;;;11.30;7.85;;;;;;;12.87;100.00;101286.06;4957766;28;20042;-78
2022/10/29 03:37:41;;;;;;;15.63;7.97;;;;;;;12.84;100.00;101294.06;4949424;28;20111;-79
2022/10/29 03:40:08;;;;;;;11.10;7.20;;;;;;;12.82;100.00;101295.88;4914014;28;20043;-79
2022/10/29 03:42:37;;;;;;;11.93;7.15;;;;;;;12.78;100.00;101290.66;4945243;28;20046;-81
2022/10/29 03:45:10;;;;;;;10.82;6.95;;;;;;;12.73;100.00;101293.41;4976130;28;20447;-81
2022/10/29 03:47:36;;;;;;;16.08;7.38;;;;;;;12.70;100.00;101297.91;4940360;28;20035;-79
2022/10/29 03:50:03;;;;;;;12.00;7.00;;;;;;;12.67;100.00;101309.44;4969160;28;20055;-80
2022/10/29 03:52:30;;;;;;;12.38;7.10;;;;;;;12.61;100.00;101305.16;4968396;28;20050;-79
2022/10/29 03:54:57;;;;;;;10.55;6.95;;;;;;;12.58;100.00;101310.47;4964541;28;20749;-81
2022/10/29 03:57:26;;;;;;;17.70;8.98;;;;;;;12.59;100.00;101308.69;4952375;28;20070;-81
2022/10/29 03:59:53;;;;;;;12.80;6.82;;;;;;;12.50;100.00;101311.53;4953699;28;20039;-80
2022/10/29 04:02:20;;;;;;;11.73;7.70;;;;;;;12.49;100.00;101315.94;4980120;28;20042;-80
2022/10/29 04:04:47;;;;;;;12.63;7.28;;;;;;;12.45;100.00;101308.09;4941401;28;20059;-78
2022/10/29 04:07:14;;;;;;;15.05;7.15;;;;;;;12.39;100.00;101304.66;4965742;28;20047;-80
2022/10/29 04:09:40;;;;;;;12.93;8.13;;;;;;;12.35;100.00;101308.22;4970315;28;20095;-80
2022/10/29 04:12:07;;;;;;;14.13;6.57;;;;;;;12.32;100.00;101310.06;4974348;28;20047;-79
2022/10/29 04:14:34;;;;;;;12.10;7.72;;;;;;;12.28;100.00;101300.44;4960838;28;20039;-80
2022/10/29 04:17:04;;;;;;;16.58;7.70;;;;;;;12.26;100.00;101300.44;4950812;28;20389;-79
2022/10/29 04:19:30;;;;;;;15.50;8.10;;;;;;;12.27;100.00;101306.63;4939076;28;20110;-80
2022/10/29 04:21:57;;;;;;;11.48;7.82;;;;;;;12.28;100.00;101309.28;4952966;28;20043;-78
2022/10/29 04:24:44;;;;;;;11.52;7.68;;;;;;;12.25;100.00;101304.00;4972425;28;20121;-79
2022/10/29 04:27:31;;;;;;;13.45;8.13;;;;;;;12.24;100.00;101298.72;4952764;28;20499;-80
2022/10/29 04:30:18;;;;;;;13.25;7.35;;;;;;;12.23;100.00;101308.47;4942671;28;20126;-81
2022/10/29 04:32:44;;;;;;;12.27;7.25;;;;;;;12.19;100.00;101301.47;4955037;28;20043;-80
2022/10/29 04:35:11;;;;;;;11.63;6.78;;;;;;;12.17;100.00;101300.59;4960650;28;20106;-79
2022/10/29 04:37:38;;;;;;;14.13;8.10;;;;;;;12.16;100.00;101301.50;4976153;28;20476;-79
2022/10/29 04:40:05;;;;;;;13.80;7.47;;;;;;;12.15;100.00;101307.72;4924164;28;20415;-79
2022/10/29 04:42:38;;;;;;;12.30;7.10;;;;;;;12.12;100.00;101321.00;4935956;28;20039;-78
2022/10/29 04:45:06;;;;;;;13.52;6.70;;;;;;;12.06;100.00;101316.69;4955028;28;20042;-80
2022/10/29 04:47:33;;;;;;;11.70;7.40;;;;;;;12.06;100.00;101323.75;4946780;28;20047;-80
2022/10/29 04:49:59;;;;;;;17.52;8.38;;;;;;;12.05;100.00;101314.06;4937221;29;20276;-79
2022/10/29 04:52:26;;;;;;;15.73;7.95;;;;;;;12.05;100.00;101319.38;4964240;28;20039;-78
2022/10/29 04:54:53;;;;;;;13.50;7.72;;;;;;;12.04;100.00;101318.50;4925943;28;20043;-79
2022/10/29 04:57:19;;;;;;;12.88;7.97;;;;;;;12.04;100.00;101323.78;4971995;28;20047;-81
2022/10/29 04:59:46;;;;;;;15.70;7.75;;;;;;;12.01;100.00;101315.00;4942462;28;20043;-78
2022/10/29 05:02:12;;;;;;;13.45;8.38;;;;;;;11.99;100.00;101319.44;4961331;28;20047;-79
2022/10/29 05:04:39;;;;;;;15.93;8.55;;;;;;;11.99;100.00;101319.44;4969713;28;20062;-79
2022/10/29 05:07:06;;;;;;;15.43;8.43;;;;;;;11.99;100.00;101320.31;4934807;28;20042;-78
2022/10/29 05:09:32;;;;;;;14.20;8.88;;;;;;;12.00;100.00;101326.50;4939715;28;20047;-79
2022/10/29 05:11:59;;;;;;;18.77;8.63;;;;;;;11.98;100.00;101320.34;4961051;28;20073;-79
2022/10/29 05:14:26;;;;;;;15.30;9.00;;;;;;;11.98;100.00;101313.28;4952479;28;20062;-79
2022/10/29 05:16:52;;;;;;;18.08;8.60;;;;;;;11.97;100.00;101308.88;4938972;28;20562;-78
2022/10/29 05:19:19;;;;;;;14.65;8.85;;;;;;;11.99;100.00;101314.16;4930271;28;20101;-78
2022/10/29 05:21:46;;;;;;;21.65;8.45;;;;;;;11.99;100.00;101315.03;4941474;28;20050;-78
2022/10/29 05:24:12;;;;;;;18.23;8.88;;;;;;;11.95;100.00;101313.34;4951139;28;20043;-79
2022/10/29 05:26:39;;;;;;;14.82;8.88;;;;;;;11.98;100.00;101325.66;4956021;28;20046;-79
2022/10/29 05:29:06;;;;;;;18.15;9.13;;;;;;;11.96;100.00;101320.38;4956698;28;20046;-79
2022/10/29 05:31:32;;;;;;;13.93;8.60;;;;;;;11.94;100.00;101318.63;4938940;28;20039;-79
2022/10/29 05:33:59;;;;;;;15.48;8.90;;;;;;;11.93;100.00;101324.84;4964953;28;20034;-79
2022/10/29 05:36:25;;;;;;;17.05;8.98;;;;;;;11.96;100.00;101322.16;4968699;28;20043;-79
2022/10/29 05:38:52;;;;;;;16.00;8.40;;;;;;;11.95;100.00;101333.66;4973450;28;20051;-79
2022/10/29 05:41:19;;;;;;;17.35;8.52;;;;;;;11.94;100.00;101334.53;4956410;28;20038;-80
2022/10/29 05:43:49;;;;;;;15.70;8.55;;;;;;;11.90;100.00;101328.41;4952255;28;20078;-79
2022/10/29 05:46:15;;;;;;;18.35;8.88;;;;;;;11.88;100.00;101321.41;4969885;28;20034;-78
2022/10/29 05:48:42;;;;;;;14.05;8.93;;;;;;;11.90;100.00;101322.25;4968596;28;20042;-79
2022/10/29 05:51:09;;;;;;;15.82;9.00;;;;;;;11.82;100.00;101323.22;4934062;28;20035;-78
2022/10/29 05:53:35;;;;;;;13.30;8.68;;;;;;;11.78;100.00;101310.91;4935391;28;20102;-80
2022/10/29 05:56:02;;;;;;;15.52;8.68;;;;;;;11.81;100.00;101323.25;4919476;28;20046;-79
2022/10/29 05:58:29;;;;;;;14.35;8.43;;;;;;;11.78;100.00;101326.81;4943952;28;20039;-79
2022/10/29 06:00:55;;;;;;;15.00;8.45;;;;;;;11.75;100.00;101336.53;4922019;28;20611;-80
2022/10/29 06:03:22;;;;;;;14.43;8.40;;;;;;;11.75;100.00;101325.94;4948655;28;20050;-79
2022/10/29 06:05:49;;;;;;;20.00;10.68;;;;;;;11.89;100.00;101329.31;4941930;28;20054;-80
2022/10/29 06:08:16;;;;;;;15.70;8.60;;;;;;;11.84;100.00;101329.38;4956942;28;20040;-79
2022/10/29 06:10:43;;;;;;;17.13;9.25;;;;;;;11.89;100.00;101337.25;4961555;28;20491;-79
2022/10/29 06:13:15;;;;;;;15.40;8.27;;;;;;;11.99;100.00;101344.16;4956336;28;20054;-79
2022/10/29 06:15:41;;;;;;;14.63;9.02;;;;;;;11.95;100.00;101352.19;4959904;28;20125;-80
2022/10/29 06:18:08;;;;;;;14.20;8.48;;;;;;;11.97;100.00;101353.03;4944504;28;20105;-80
2022/10/29 06:20:36;;;;;;;17.30;10.13;;;;;;;12.04;100.00;101360.00;4958551;28;21766;-80
2022/10/29 06:23:03;;;;;;;17.67;9.30;;;;;;;12.07;100.00;101373.19;4958769;28;20066;-79
2022/10/29 06:25:29;;;;;;;20.55;10.13;;;;;;;12.10;100.00;101374.00;4958428;28;20488;-79
2022/10/29 06:28:04;;;;;;;19.00;10.13;;;;;;;12.15;100.00;101368.63;4939885;29;20516;-79
2022/10/29 06:30:32;;;;;;;19.63;11.25;;;;;;;12.25;100.00;101370.22;4920141;28;20448;-79
2022/10/29 06:33:00;;;;;;;17.15;10.25;;;;;;;12.26;100.00;101381.69;4957956;28;20052;-79
2022/10/29 06:35:27;;;;;;;15.93;9.07;;;;;;;12.30;100.00;101384.28;4974094;28;20046;-79
2022/10/29 06:37:53;;;;;;;17.90;9.93;;;;;;;12.32;100.00;101382.50;4958237;28;20043;-79
2022/10/29 06:40:21;;;;;;;17.02;10.23;;;;;;;12.37;100.00;101370.06;4950256;28;20131;-78
2022/10/29 06:42:48;;;;;;;16.35;9.80;;;;;;;12.40;100.00;101375.28;4955843;28;20042;-78
2022/10/29 06:45:14;;;;;;;17.23;9.18;;;;;;;12.43;100.00;101374.34;4973834;28;20039;-78
2022/10/29 06:47:43;;;;;;;20.88;10.77;;;;;;;12.49;100.00;101362.78;4974170;28;20047;-77
2022/10/29 06:50:11;;;;;;;18.17;9.80;;;;;;;12.52;100.00;101362.72;4956905;28;20054;-79
2022/10/29 06:52:38;;;;;;;20.33;11.20;;;;;;;12.57;100.00;101358.22;4943888;28;20034;-78
2022/10/29 06:55:06;;;;;;;15.90;9.10;;;;;;;12.63;100.00;101360.78;4973036;28;20035;-79
2022/10/29 06:57:33;;;;;;;24.48;11.55;;;;;;;12.72;100.00;101368.56;4934878;28;20101;-76
2022/10/29 06:59:59;;;;;;;17.52;9.85;;;;;;;12.72;100.00;101365.03;4941787;28;20043;-77
2022/10/29 07:02:34;;;;;;;15.98;9.02;;;;;;;12.74;100.00;101369.41;4951086;28;20035;-76
2022/10/29 07:05:00;;;;;;;18.55;9.80;;;;;;;12.81;100.00;101367.53;4941649;28;20051;-77
2022/10/29 07:07:27;;;;;;;19.35;10.48;;;;;;;12.86;100.00;101363.91;4949918;28;20050;-76
2022/10/29 07:09:54;;;;;;;15.02;8.60;;;;;;;12.91;100.00;101377.91;4952330;28;20062;-78
2022/10/29 07:12:20;;;;;;;23.77;11.85;;;;;;;13.00;100.00;101381.31;4939693;28;20218;-77
2022/10/29 07:14:47;;;;;;;23.65;12.93;;;;;;;13.12;100.00;101386.41;4957358;28;20081;-77
2022/10/29 07:17:14;;;;;;;24.33;11.93;;;;;;;13.13;100.00;101383.72;4942422;28;20070;-77
2022/10/29 07:19:40;;;;;;;21.35;11.30;;;;;;;13.17;100.00;101389.81;4957039;28;20077;-75
2022/10/29 07:22:07;;;;;;;16.88;12.00;;;;;;;13.23;100.00;101400.34;4953734;28;20452;-76
2022/10/29 07:24:34;;;;;;;21.75;11.95;;;;;;;13.25;100.00;101398.53;4970201;28;20086;-76
2022/10/29 07:27:00;;;;;;;21.90;11.27;;;;;;;13.29;100.00;101394.94;4956327;28;20420;-76
2022/10/29 07:29:27;;;;;;;25.23;12.57;;;;;;;13.35;100.00;101394.78;4954892;28;20074;-77
2022/10/29 07:31:54;;;;;;;19.33;11.88;;;;;;;13.57;100.00;101402.31;4954285;28;21090;-76
2022/10/29 07:34:21;;;;;;;24.98;12.13;;;;;;;13.54;100.00;101397.97;4956610;28;20035;-76
2022/10/29 07:36:47;;;;;;;21.17;11.98;;;;;;;13.65;100.00;101403.91;4952619;28;20492;-76
2022/10/29 07:39:14;;;;;;;21.15;12.63;;;;;;;13.70;100.00;101406.44;4976837;28;20043;-76
2022/10/29 07:41:40;;;;;;;18.20;11.60;;;;;;;13.76;100.00;101407.19;4924824;28;20057;-77
2022/10/29 07:44:07;;;;;;;22.20;13.00;;;;;;;13.79;100.00;101406.28;4953742;28;20087;-77
2022/10/29 07:46:34;;;;;;;23.50;11.68;;;;;;;13.79;100.00;101414.25;4960257;28;20046;-76
2022/10/29 07:49:00;;;;;;;28.60;14.13;;;;;;;13.92;100.00;101418.34;4943861;28;20046;-76
2022/10/29 07:51:27;;;;;;;25.25;14.65;;;;;;;14.05;100.00;101427.81;4973921;28;20038;-77
2022/10/29 07:53:54;;;;;;;23.30;13.43;;;;;;;14.17;100.00;101424.00;4973169;28;20388;-76
2022/10/29 07:56:20;;;;;;;20.73;12.57;;;;;;;14.11;100.00;101418.81;4957249;28;20046;-76
2022/10/29 07:58:47;;;;;;;22.95;12.85;;;;;;;14.14;100.00;101429.38;4972997;28;20042;-78
2022/10/29 08:01:14;;;;;;;26.30;12.65;;;;;;;14.31;100.00;101421.03;4968220;28;20042;-77
2022/10/29 08:03:41;;;;;;;26.85;12.77;;;;;;;14.20;100.00;101449.63;4972301;28;20043;-75
2022/10/29 08:06:10;;;;;;;20.33;12.10;;;;;;;14.41;100.00;101438.50;4938434;28;20053;-77
2022/10/29 08:08:37;;;;;;;22.00;12.50;;;;;;;14.45;100.00;101423.34;4949029;28;20047;-76
2022/10/29 08:11:04;;;;;;;22.27;12.02;;;;;;;14.46;100.00;101427.78;4955389;28;20043;-78
2022/10/29 08:13:31;;;;;;;24.70;12.85;;;;;;;14.49;100.00;101425.06;4939338;28;20134;-78
2022/10/29 08:15:57;;;;;;;21.35;12.10;;;;;;;14.54;100.00;101423.13;4950994;28;20093;-77
2022/10/29 08:18:24;;;;;;;23.30;13.32;;;;;;;14.58;100.00;101436.34;4949707;28;20086;-78
2022/10/29 08:20:50;;;;;;;21.17;12.13;;;;;;;14.67;100.00;101439.69;4938350;28;20039;-78
2022/10/29 08:23:17;;;;;;;19.63;11.70;;;;;;;14.66;100.00;101448.56;4952524;28;20045;-77
2022/10/29 08:25:44;;;;;;;16.98;10.93;;;;;;;14.63;100.00;101447.75;4950987;28;20043;-78
2022/10/29 08:28:14;;;;;;;23.90;11.65;;;;;;;14.56;100.00;101438.16;4953570;28;20558;-78
2022/10/29 08:30:42;;;;;;;21.83;12.75;;;;;;;14.57;100.00;101445.22;4938748;28;20058;-77
2022/10/29 08:33:10;;;;;;;25.05;12.50;;;;;;;14.69;100.00;101435.19;4939804;28;20046;-75
2022/10/29 08:35:36;;;;;;;23.13;11.48;;;;;;;14.63;100.00;101449.53;4939451;28;20043;-79
2022/10/29 08:38:03;;;;;;;16.95;10.77;;;;;;;14.76;100.00;101448.28;4938516;28;20117;-77
2022/10/29 08:40:49;;;;;;;20.02;11.57;;;;;;;14.77;100.00;101446.50;4972063;28;20043;-76
2022/10/29 08:43:34;;;;;;;20.80;11.00;;;;;;;14.90;100.00;101437.31;4955530;28;20030;-76
2022/10/29 08:46:01;;;;;;;16.33;10.90;;;;;;;14.83;100.00;101449.91;4952051;28;20420;-77
2022/10/29 08:48:45;;;;;;;20.27;12.00;;;;;;;14.84;100.00;101456.97;4957800;28;20046;-77
2022/10/29 08:51:12;;;;;;;20.67;11.30;;;;;;;14.78;100.00;101453.56;4939460;28;20050;-75
2022/10/29 08:53:42;;;;;;;20.52;10.82;;;;;;;14.87;100.00;101459.53;4955203;28;20062;-76
2022/10/29 08:56:17;;;;;;;20.95;11.00;;;;;;;14.86;100.00;101457.78;4930506;28;20117;-78
2022/10/29 08:58:52;;;;;;;17.27;10.63;;;;;;;14.99;100.00;101471.66;4939518;28;20070;-77
2022/10/29 09:01:21;;;;;;;17.65;9.60;;;;;;;15.03;100.00;101468.00;4954338;28;20093;-76
2022/10/29 09:03:49;;;;;;;22.77;10.68;;;;;;;15.19;100.00;101460.47;4938657;28;20884;-76
2022/10/29 09:06:34;;;;;;;17.10;10.45;;;;;;;15.22;100.00;101460.44;4954174;28;20078;-76
2022/10/29 09:09:12;;;;;;;17.85;10.35;;;;;;;15.47;100.00;101469.50;4954700;28;20084;-78
2022/10/29 09:12:16;;;;;;;16.77;9.05;;;;;;;15.50;100.00;101465.84;4970130;28;20041;-78
2022/10/29 09:14:46;;;;;;;18.50;9.85;;;;;;;15.56;100.00;101464.81;4938856;28;20046;-77
2022/10/29 09:17:22;;;;;;;16.70;9.88;;;;;;;15.61;100.00;101462.91;4969778;28;20051;-76
2022/10/29 09:20:22;;;;;;;15.98;9.63;;;;;;;15.51;100.00;101466.72;4928084;28;20043;-76
2022/10/29 09:23:06;;;;;;;15.05;8.65;;;;;;;15.59;100.00;101462.94;4928777;28;20081;-77
2022/10/29 09:25:38;;;;;;;17.35;9.68;;;;;;;15.64;100.00;101474.38;4967448;28;20478;-76
2022/10/29 09:28:21;;;;;;;22.48;9.40;;;;;;;15.66;100.00;101474.31;4935250;28;20492;-76
2022/10/29 09:30:59;;;;;;;18.67;9.13;;;;;;;15.65;100.00;101468.13;4970220;28;20042;-76
2022/10/29 09:33:26;;;;;;;12.05;8.50;;;;;;;15.58;100.00;101468.31;4952714;28;20073;-78
2022/10/29 09:35:55;;;;;;;21.20;10.27;;;;;;;15.69;100.00;101474.22;4953043;28;20109;-77
2022/10/29 09:38:34;;;;;;;12.20;8.75;;;;;;;15.67;100.00;101468.06;4953932;28;20093;-76
2022/10/29 09:41:02;;;;;;;14.52;7.85;;;;;;;15.65;100.00;101469.91;4938776;28;20042;-77
2022/10/29 09:43:37;;;;;;;18.17;9.18;;;;;;;15.78;100.00;101468.63;4937400;28;20035;-79
2022/10/29 09:46:19;;;;;;;15.15;8.18;;;;;;;15.84;100.00;101463.13;4947816;28;20038;-78
2022/10/29 09:49:14;;;;;;;14.27;9.50;;;;;;;16.05;100.00;101457.13;4972252;28;20045;-76
2022/10/29 09:51:46;;;;;;;16.35;8.52;;;;;;;16.01;100.00;101450.16;4971879;28;20090;-76
2022/10/29 09:54:13;;;;;;;12.57;7.85;;;;;;;16.11;100.00;101453.41;4967324;28;20039;-76
2022/10/29 09:56:41;;;;;;;13.30;8.10;;;;;;;16.32;100.00;101451.91;4938501;28;20137;-76
2022/10/29 09:59:17;;;;;;;15.23;8.00;;;;;;;16.24;100.00;101459.25;4970179;28;20073;-75
2022/10/29 10:01:46;;;;;;;19.38;9.23;;;;;;;16.40;100.00;101467.66;4967305;28;20086;-76
2022/10/29 10:04:20;;;;;;;15.52;8.48;;;;;;;16.49;100.00;101449.56;4938602;28;20043;-76
2022/10/29 10:07:00;;;;;;;17.38;8.68;;;;;;;16.48;100.00;101447.81;4950751;28;20070;-77
2022/10/29 10:09:27;;;;;;;15.10;8.23;;;;;;;16.58;100.00;101446.59;4971347;28;20639;-77
2022/10/29 10:11:57;;;;;;;12.40;7.43;;;;;;;16.50;100.00;101448.63;4921746;28;20042;-76
2022/10/29 10:14:26;;;;;;;16.73;8.48;;;;;;;16.50;100.00;101445.09;4971223;28;20042;-76
2022/10/29 10:16:57;;;;;;;13.18;8.90;;;;;;;16.49;100.00;101438.91;4932842;28;20093;-76
2022/10/29 10:19:26;;;;;;;17.35;8.70;;;;;;;16.61;100.00;101443.81;4935945;28;20070;-76
2022/10/29 10:22:01;;;;;;;16.65;8.60;;;;;;;16.57;100.00;101442.19;4937085;28;20066;-76
2022/10/29 10:24:29;;;;;;;12.05;7.45;;;;;;;16.61;100.00;101437.59;4964739;28;20046;-77
2022/10/29 10:26:55;;;;;;;14.13;7.88;;;;;;;16.67;100.00;101445.41;4975167;28;20125;-76
2022/10/29 10:29:24;;;;;;;11.23;7.15;;;;;;;16.65;100.00;101436.59;4932138;28;20047;-77
2022/10/29 10:31:56;;;;;;;12.93;7.65;;;;;;;16.87;100.00;101426.09;4953190;28;20130;-76
2022/10/29 10:34:25;;;;;;;18.63;7.32;;;;;;;16.90;100.00;101423.34;4964649;28;20050;-77
2022/10/29 10:36:54;;;;;;;13.00;8.38;;;;;;;17.03;100.00;101419.28;4952789;28;20140;-76
2022/10/29 10:39:30;;;;;;;14.07;8.00;;;;;;;17.07;100.00;101414.72;4945134;28;20039;-77
2022/10/29 10:41:59;;;;;;;16.08;9.23;;;;;;;17.01;100.00;101421.16;4970066;28;20046;-78
2022/10/29 10:44:27;;;;;;;15.98;9.25;;;;;;;17.03;100.00;101421.09;4937369;28;20806;-78
2022/10/29 10:46:54;;;;;;;12.95;8.13;;;;;;;17.05;100.00;101421.91;4968102;28;20070;-77
2022/10/29 10:49:34;;;;;;;17.00;8.85;;;;;;;16.88;100.00;101420.69;4951531;28;20512;-77
2022/10/29 10:52:10;;;;;;;12.15;8.23;;;;;;;16.84;100.00;101419.06;4948665;28;20523;-76
2022/10/29 10:54:40;;;;;;;13.75;7.93;;;;;;;16.77;100.00;101409.53;4951496;28;20050;-77
2022/10/29 10:57:10;;;;;;;18.30;9.30;;;;;;;16.92;100.00;101415.25;4955240;28;20130;-76
2022/10/29 10:59:40;;;;;;;15.73;7.80;;;;;;;16.81;100.00;101416.47;4970911;28;20039;-76
2022/10/29 11:02:19;;;;;;;16.05;8.80;;;;;;;16.86;100.00;101413.66;4944361;28;20050;-77
2022/10/29 11:04:49;;;;;;;14.50;9.60;;;;;;;16.79;100.00;101413.00;4924061;28;20051;-76
2022/10/29 11:07:16;;;;;;;14.75;7.88;;;;;;;16.76;100.00;101421.13;4940869;28;20046;-78
2022/10/29 11:09:49;;;;;;;12.23;7.32;;;;;;;16.71;100.00;101416.84;4923522;28;20046;-79
2022/10/29 11:12:30;;;;;;;11.57;7.22;;;;;;;16.68;100.00;101406.25;4955423;28;20038;-79
2022/10/29 11:15:17;;;;;;;17.55;7.60;;;;;;;16.80;100.00;101401.41;4950261;28;20098;-77
2022/10/29 11:17:52;;;;;;;16.65;7.63;;;;;;;16.89;100.00;101402.88;4937075;28;20093;-76
2022/10/29 11:20:27;;;;;;;13.20;7.47;;;;;;;17.05;100.00;101397.88;4969851;28;20412;-76
2022/10/29 11:23:01;;;;;;;15.75;7.43;;;;;;;17.20;100.00;101393.78;4943987;28;20050;-77